createdAt,value
2017-12-24T00:00:36.405Z,19.2493
2017-12-24T00:01:41.860Z,18.5808
2017-12-24T00:02:47.343Z,19.2493
2017-12-24T00:03:53.143Z,18.8318
2017-12-24T00:04:58.620Z,19.2493
2017-12-24T00:06:03.812Z,19.9997
2017-12-24T00:07:09.653Z,19.9997
2017-12-24T00:08:14.848Z,19.9997
2017-12-24T00:09:20.356Z,19.9997
2017-12-24T00:10:26.141Z,20.6656
2017-12-24T00:11:31.324Z,19.9997
2017-12-24T00:12:37.276Z,20.2481
2017-12-24T00:13:42.753Z,19.9997
2017-12-24T00:14:48.236Z,19.7487
2017-12-24T00:15:53.769Z,20.4991
2017-12-24T00:16:59.251Z,20.2481
2017-12-24T00:18:04.706Z,20.6656
2017-12-24T00:19:10.424Z,19.7487
2017-12-24T00:20:15.909Z,19.7487
2017-12-24T00:21:21.426Z,20.2481
2017-12-24T00:22:41.283Z,20.6656
2017-12-24T00:23:46.531Z,19.4977
2017-12-24T00:24:51.969Z,19.4977
2017-12-24T00:25:57.184Z,20.4146
2017-12-24T00:27:02.408Z,20.9166
2017-12-24T00:28:08.153Z,20.6656
2017-12-24T00:29:13.629Z,20.4146
2017-12-24T00:30:19.116Z,21.416
2017-12-24T00:31:24.633Z,21.1676
2017-12-24T00:32:30.117Z,21.667
2017-12-24T00:33:36.010Z,22.1664
2017-12-24T00:34:40.924Z,21.667
2017-12-24T00:35:46.106Z,22.6685
2017-12-24T00:36:52.067Z,23.0859
2017-12-24T00:37:57.563Z,21.918
2017-12-24T00:39:03.100Z,22.6685
2017-12-24T00:40:09.515Z,22.8349
2017-12-24T00:41:14.690Z,22.6685
2017-12-24T00:42:20.172Z,22.4174
2017-12-24T00:43:26.327Z,22.1664
2017-12-24T00:44:31.809Z,22.6685
2017-12-24T00:45:37.667Z,23.8364
2017-12-24T00:46:43.164Z,22.6685
2017-12-24T00:47:48.669Z,22.8349
2017-12-24T00:48:54.128Z,22.8349
2017-12-24T00:49:59.627Z,22.8349
2017-12-24T00:51:05.128Z,22.6685
2017-12-24T00:52:10.960Z,23.0859
2017-12-24T00:53:16.461Z,23.3343
2017-12-24T00:54:21.917Z,23.5853
2017-12-24T00:55:28.166Z,23.5853
2017-12-24T00:56:33.679Z,23.5853
2017-12-24T00:57:39.506Z,24.5868
2017-12-24T00:58:44.996Z,23.8364
2017-12-24T00:59:50.185Z,23.3343
2017-12-24T01:00:55.741Z,23.8364
2017-12-24T01:02:00.647Z,23.5853
2017-12-24T01:03:06.138Z,24.0847
2017-12-24T01:04:11.876Z,24.8378
2017-12-24T01:05:17.075Z,23.5853
2017-12-24T01:06:22.551Z,24.3358
2017-12-24T01:07:28.370Z,24.3358
2017-12-24T01:08:33.847Z,24.0847
2017-12-24T01:09:39.789Z,24.0847
2017-12-24T01:10:45.277Z,25.0862
2017-12-24T01:11:50.762Z,24.5868
2017-12-24T01:12:56.480Z,23.8364
2017-12-24T01:14:01.975Z,23.5853
2017-12-24T01:15:07.458Z,23.5853
2017-12-24T01:16:13.429Z,25.0862
2017-12-24T01:17:18.918Z,23.8364
2017-12-24T01:18:23.845Z,23.5853
2017-12-24T01:19:29.623Z,23.3343
2017-12-24T01:20:35.130Z,23.3343
2017-12-24T01:21:40.863Z,22.8349
2017-12-24T01:22:46.337Z,23.0859
2017-12-24T01:23:51.826Z,23.0859
2017-12-24T01:24:57.660Z,23.0859
2017-12-24T01:26:03.160Z,23.3343
2017-12-24T01:27:08.635Z,22.8349
2017-12-24T01:28:14.092Z,23.5853
2017-12-24T01:29:19.562Z,23.0859
2017-12-24T01:30:40.007Z,23.5853
2017-12-24T01:31:45.499Z,23.8364
2017-12-24T01:32:50.975Z,23.8364
2017-12-24T01:33:56.794Z,23.8364
2017-12-24T01:35:02.290Z,23.5853
2017-12-24T01:36:07.748Z,22.8349
2017-12-24T01:37:13.249Z,23.5853
2017-12-24T01:38:18.475Z,23.0859
2017-12-24T01:40:43.522Z,22.6685
2017-12-24T01:41:48.714Z,22.9168
2017-12-24T01:42:54.136Z,22.1664
2017-12-24T01:43:59.607Z,22.4174
2017-12-24T01:45:04.790Z,22.9168
2017-12-24T01:46:10.671Z,22.6685
2017-12-24T01:47:16.173Z,23.0859
2017-12-24T01:48:21.633Z,22.9168
2017-12-24T01:49:28.351Z,22.6685
2017-12-24T01:50:33.841Z,22.4174
2017-12-24T01:51:39.666Z,23.0859
2017-12-24T01:52:45.156Z,23.0859
2017-12-24T01:53:50.646Z,22.6685
2017-12-24T01:54:56.491Z,22.4174
2017-12-24T01:56:01.701Z,22.8349
2017-12-24T01:57:07.187Z,22.6685
2017-12-24T01:58:12.702Z,22.4174
2017-12-24T01:59:18.196Z,22.8349
2017-12-24T02:00:23.379Z,21.918
2017-12-24T02:01:29.850Z,22.4174
2017-12-24T02:02:35.330Z,22.1664
2017-12-24T02:03:41.187Z,23.3343
2017-12-24T02:04:46.695Z,22.1664
2017-12-24T02:05:52.203Z,22.1664
2017-12-24T02:06:57.997Z,22.4174
2017-12-24T02:08:03.488Z,22.4174
2017-12-24T02:09:08.976Z,23.0859
2017-12-24T02:10:14.239Z,23.0859
2017-12-24T02:11:19.732Z,22.4174
2017-12-24T02:12:25.422Z,21.667
2017-12-24T02:13:30.362Z,22.6685
2017-12-24T02:14:35.875Z,22.9168
2017-12-24T02:15:41.355Z,22.1664
2017-12-24T02:16:46.818Z,21.1676
2017-12-24T02:17:52.283Z,22.1664
2017-12-24T02:18:58.085Z,21.667
2017-12-24T02:20:03.594Z,22.1664
2017-12-24T02:21:08.979Z,22.4174
2017-12-24T02:22:14.787Z,22.4174
2017-12-24T02:23:20.252Z,21.667
2017-12-24T02:24:26.233Z,21.416
2017-12-24T02:25:31.715Z,22.1664
2017-12-24T02:26:37.202Z,20.9166
2017-12-24T02:27:42.980Z,21.416
2017-12-24T02:28:48.464Z,22.1664
2017-12-24T02:29:53.927Z,22.9168
2017-12-24T02:30:59.867Z,22.4174
2017-12-24T02:32:04.775Z,22.6685
2017-12-24T02:33:09.960Z,22.6685
2017-12-24T02:34:15.772Z,22.1664
2017-12-24T02:35:20.997Z,22.1664
2017-12-24T02:36:41.495Z,23.0859
2017-12-24T02:37:46.692Z,22.5839
2017-12-24T02:38:52.161Z,22.6685
2017-12-24T02:39:58.017Z,22.4174
2017-12-24T02:41:02.915Z,22.4174
2017-12-24T02:42:08.388Z,21.416
2017-12-24T02:43:14.173Z,23.8364
2017-12-24T02:44:19.391Z,24.0847
2017-12-24T02:45:39.774Z,21.918
2017-12-24T02:46:44.978Z,22.4174
2017-12-24T02:47:49.912Z,22.4174
2017-12-24T02:48:55.654Z,22.8349
2017-12-24T02:50:00.609Z,22.6685
2017-12-24T02:51:06.122Z,22.8349
2017-12-24T02:52:11.916Z,22.6685
2017-12-24T02:53:17.393Z,22.4174
2017-12-24T02:54:22.885Z,23.0859
2017-12-24T02:55:28.138Z,22.4174
2017-12-24T02:56:33.600Z,23.3343
2017-12-24T02:57:39.050Z,23.3343
2017-12-24T02:58:44.560Z,23.3343
2017-12-24T02:59:50.022Z,22.6685
2017-12-24T03:00:55.447Z,23.3343
2017-12-24T03:02:00.927Z,22.6685
2017-12-24T03:03:06.110Z,23.3343
2017-12-24T03:04:11.875Z,23.5853
2017-12-24T03:05:17.064Z,23.3343
2017-12-24T03:06:22.543Z,22.8349
2017-12-24T03:07:28.421Z,23.3343
2017-12-24T03:08:33.891Z,23.8364
2017-12-24T03:09:39.621Z,23.8364
2017-12-24T03:10:44.819Z,24.0847
2017-12-24T03:11:50.315Z,23.5853
2017-12-24T03:12:56.160Z,23.5853
2017-12-24T03:14:01.652Z,23.0859
2017-12-24T03:15:07.157Z,23.8364
2017-12-24T03:16:12.943Z,23.8364
2017-12-24T03:17:18.133Z,23.3343
2017-12-24T03:18:23.659Z,23.8364
2017-12-24T03:19:29.461Z,24.8378
2017-12-24T03:20:35.126Z,24.3358
2017-12-24T03:21:40.664Z,24.5868
2017-12-24T03:22:46.177Z,24.3358
2017-12-24T03:23:51.387Z,25.0862
2017-12-24T03:24:57.029Z,25.7547
2017-12-24T03:26:02.506Z,24.8378
2017-12-24T03:27:07.678Z,25.2553
2017-12-24T03:28:13.397Z,25.2553
2017-12-24T03:29:18.881Z,24.3358
2017-12-24T03:30:39.811Z,25.5037
2017-12-24T03:31:45.276Z,24.5868
2017-12-24T03:32:50.740Z,26.0057
2017-12-24T03:33:56.557Z,26.0057
2017-12-24T03:35:02.038Z,27.0071
2017-12-24T03:36:07.227Z,26.5051
2017-12-24T03:37:12.658Z,27.5065
2017-12-24T03:38:17.869Z,27.5065
2017-12-24T03:39:23.385Z,26.7561
2017-12-24T03:40:29.314Z,27.2582
2017-12-24T03:41:34.804Z,27.0071
2017-12-24T03:42:40.661Z,27.7576
2017-12-24T03:43:45.853Z,27.924
2017-12-24T03:44:51.719Z,27.0071
2017-12-24T03:45:57.447Z,27.5065
2017-12-24T03:47:02.909Z,27.5065
2017-12-24T03:48:08.103Z,26.5051
2017-12-24T03:49:13.901Z,27.7576
2017-12-24T03:50:19.109Z,26.5051
2017-12-24T03:51:39.505Z,27.2582
2017-12-24T03:52:44.716Z,26.7561
2017-12-24T03:53:49.603Z,26.7561
2017-12-24T03:54:54.773Z,26.7561
2017-12-24T03:55:59.962Z,26.7561
2017-12-24T03:57:04.876Z,27.0071
2017-12-24T03:58:10.404Z,26.2567
2017-12-24T03:59:15.594Z,25.7547
2017-12-24T04:00:20.798Z,26.2567
2017-12-24T04:01:26.513Z,26.5051
2017-12-24T04:02:31.731Z,27.5065
2017-12-24T04:03:37.380Z,27.5065
2017-12-24T04:04:42.872Z,27.5065
2017-12-24T04:05:48.353Z,26.7561
2017-12-24T04:06:54.076Z,27.0071
2017-12-24T04:07:59.606Z,27.0071
2017-12-24T04:09:05.045Z,27.0071
2017-12-24T04:10:10.707Z,27.2582
2017-12-24T04:11:16.181Z,27.7576
2017-12-24T04:12:21.395Z,27.924
2017-12-24T04:13:28.237Z,27.2582
2017-12-24T04:14:33.460Z,27.924
2017-12-24T04:15:38.959Z,27.5065
2017-12-24T04:16:44.151Z,28.0086
2017-12-24T04:17:49.648Z,27.0071
2017-12-24T04:18:55.354Z,27.7576
2017-12-24T04:20:00.599Z,27.924
2017-12-24T04:21:05.789Z,28.175
2017-12-24T04:22:11.988Z,27.7576
2017-12-24T04:23:17.472Z,28.5925
2017-12-24T04:24:22.654Z,27.5065
2017-12-24T04:25:28.547Z,27.2582
2017-12-24T04:26:34.024Z,27.5065
2017-12-24T04:27:40.162Z,27.2582
2017-12-24T04:28:45.666Z,28.175
2017-12-24T04:29:51.180Z,27.924
2017-12-24T04:30:57.054Z,28.5925
2017-12-24T04:32:02.259Z,27.7576
2017-12-24T04:33:07.172Z,27.924
2017-12-24T04:34:12.986Z,27.924
2017-12-24T04:35:18.187Z,27.7576
2017-12-24T04:37:43.850Z,28.3415
2017-12-24T04:38:49.360Z,28.3415
2017-12-24T04:39:55.084Z,28.5925
2017-12-24T04:41:00.573Z,28.8436
2017-12-24T04:42:05.771Z,28.5925
2017-12-24T04:43:11.867Z,29.594
2017-12-24T04:44:17.047Z,29.0946
2017-12-24T04:45:22.562Z,29.343
2017-12-24T04:46:28.214Z,29.594
2017-12-24T04:47:33.689Z,30.096
2017-12-24T04:48:39.516Z,29.845
2017-12-24T04:49:45.024Z,29.594
2017-12-24T04:50:50.494Z,29.845
2017-12-24T04:51:56.217Z,30.2625
2017-12-24T04:53:01.703Z,30.096
2017-12-24T04:54:07.195Z,29.845
2017-12-24T04:55:12.475Z,29.594
2017-12-24T04:56:18.008Z,29.343
2017-12-24T04:57:23.233Z,29.594
2017-12-24T04:58:43.628Z,30.2625
2017-12-24T04:59:48.826Z,30.096
2017-12-24T05:00:54.545Z,30.0115
2017-12-24T05:02:00.030Z,30.2625
2017-12-24T05:03:05.504Z,29.343
2017-12-24T05:04:11.335Z,30.7619
2017-12-24T05:05:16.833Z,29.845
2017-12-24T05:06:22.037Z,30.7619
2017-12-24T05:07:27.799Z,30.7619
2017-12-24T05:08:33.281Z,29.845
2017-12-24T05:09:39.151Z,30.2625
2017-12-24T05:10:44.640Z,29.343
2017-12-24T05:11:49.828Z,29.845
2017-12-24T05:12:55.557Z,31.0129
2017-12-24T05:14:01.061Z,30.096
2017-12-24T05:15:06.541Z,30.096
2017-12-24T05:16:12.271Z,30.096
2017-12-24T05:17:17.754Z,30.5135
2017-12-24T05:18:22.963Z,30.2625
2017-12-24T05:19:43.465Z,30.2625
2017-12-24T05:20:48.661Z,30.7619
2017-12-24T05:21:54.590Z,30.5135
2017-12-24T05:22:59.774Z,31.2639
2017-12-24T05:24:04.686Z,31.2639
2017-12-24T05:25:10.669Z,29.594
2017-12-24T05:26:16.149Z,30.7619
2017-12-24T05:27:21.356Z,31.2639
2017-12-24T05:28:26.581Z,30.5135
2017-12-24T05:29:32.077Z,31.0129
2017-12-24T05:30:37.923Z,31.2639
2017-12-24T05:31:43.414Z,31.2639
2017-12-24T05:32:48.896Z,30.7619
2017-12-24T05:33:54.086Z,30.5135
2017-12-24T05:34:59.564Z,31.5149
2017-12-24T05:36:05.035Z,30.7619
2017-12-24T05:37:10.853Z,30.5135
2017-12-24T05:38:16.047Z,31.0129
2017-12-24T05:39:21.548Z,32.2654
2017-12-24T05:40:27.812Z,32.2654
2017-12-24T05:41:33.295Z,31.766
2017-12-24T05:42:39.226Z,31.5149
2017-12-24T05:43:44.725Z,32.0143
2017-12-24T05:44:49.916Z,31.766
2017-12-24T05:45:55.627Z,31.5149
2017-12-24T05:47:01.103Z,32.9339
2017-12-24T05:48:06.626Z,32.7674
2017-12-24T05:49:12.199Z,31.2639
2017-12-24T05:50:17.113Z,32.2654
2017-12-24T05:51:22.632Z,32.9339
2017-12-24T05:52:28.576Z,32.5164
2017-12-24T05:53:34.050Z,33.1849
2017-12-24T05:54:39.887Z,32.6828
2017-12-24T05:55:45.352Z,33.9353
2017-12-24T05:56:50.847Z,33.4359
2017-12-24T05:57:56.561Z,33.6869
2017-12-24T05:59:02.025Z,33.1849
2017-12-24T06:00:07.238Z,34.6884
2017-12-24T06:01:12.957Z,34.1863
2017-12-24T06:02:18.167Z,33.9353
2017-12-24T06:03:23.390Z,33.6869
2017-12-24T06:04:29.215Z,33.9353
2017-12-24T06:05:34.730Z,32.9339
2017-12-24T06:06:40.685Z,34.9394
2017-12-24T06:07:46.145Z,34.4373
2017-12-24T06:08:51.628Z,33.9353
2017-12-24T06:09:57.337Z,33.9353
2017-12-24T06:11:02.811Z,34.4373
2017-12-24T06:12:07.719Z,33.9353
2017-12-24T06:13:13.496Z,33.9353
2017-12-24T06:14:18.960Z,34.1863
2017-12-24T06:16:44.816Z,34.4373
2017-12-24T06:17:50.003Z,34.4373
2017-12-24T06:18:55.500Z,34.6884
2017-12-24T06:20:00.982Z,34.1863
2017-12-24T06:21:06.191Z,34.4373
2017-12-24T06:22:11.678Z,33.6869
2017-12-24T06:23:17.175Z,35.6053
2017-12-24T06:24:22.647Z,33.6869
2017-12-24T06:25:28.463Z,34.1863
2017-12-24T06:26:34.018Z,34.4373
2017-12-24T06:27:39.896Z,34.4373
2017-12-24T06:28:45.076Z,34.1863
2017-12-24T06:29:50.554Z,34.1863
2017-12-24T06:30:56.111Z,35.6053
2017-12-24T06:32:01.333Z,34.9394
2017-12-24T06:33:06.840Z,34.4373
2017-12-24T06:34:12.667Z,34.1863
2017-12-24T06:35:18.142Z,34.9394
2017-12-24T06:36:22.767Z,34.4373
2017-12-24T06:37:29.418Z,34.9394
2017-12-24T06:38:34.891Z,34.6884
2017-12-24T06:39:40.343Z,35.6053
2017-12-24T06:40:45.840Z,35.1878
2017-12-24T06:41:51.308Z,34.4373
2017-12-24T06:42:57.137Z,35.3569
2017-12-24T06:44:02.601Z,35.6053
2017-12-24T06:45:08.079Z,35.6053
2017-12-24T06:46:13.811Z,35.6053
2017-12-24T06:47:19.290Z,36.1073
2017-12-24T06:48:39.814Z,36.1073
2017-12-24T06:49:45.027Z,35.6053
2017-12-24T06:50:50.226Z,36.8604
2017-12-24T06:51:56.072Z,35.8563
2017-12-24T06:53:01.256Z,36.6093
2017-12-24T06:54:06.442Z,36.3583
2017-12-24T06:55:11.979Z,37.1087
2017-12-24T06:56:17.180Z,36.6093
2017-12-24T06:57:22.664Z,36.6093
2017-12-24T06:58:28.624Z,36.6093
2017-12-24T06:59:34.085Z,36.6093
2017-12-24T07:00:40.218Z,36.6093
2017-12-24T07:01:45.402Z,36.6093
2017-12-24T07:02:50.864Z,37.6108
2017-12-24T07:03:56.592Z,37.1087
2017-12-24T07:05:02.043Z,38.0283
2017-12-24T07:06:06.976Z,37.6108
2017-12-24T07:07:12.837Z,37.1087
2017-12-24T07:08:18.013Z,37.3598
2017-12-24T07:10:43.637Z,37.7772
2017-12-24T07:11:49.123Z,37.1087
2017-12-24T07:12:54.553Z,37.3598
2017-12-24T07:14:00.023Z,36.8604
2017-12-24T07:15:05.488Z,37.3598
2017-12-24T07:16:11.237Z,37.5289
2017-12-24T07:17:16.728Z,36.6093
2017-12-24T07:18:21.634Z,36.8604
2017-12-24T07:19:27.679Z,37.1087
2017-12-24T07:20:33.156Z,37.3598
2017-12-24T07:21:38.896Z,36.3583
2017-12-24T07:22:44.392Z,37.3598
2017-12-24T07:23:49.615Z,36.3583
2017-12-24T07:24:55.469Z,37.3598
2017-12-24T07:26:00.671Z,37.3598
2017-12-24T07:27:06.158Z,36.3583
2017-12-24T07:28:11.866Z,36.6093
2017-12-24T07:29:16.781Z,36.6093
2017-12-24T07:30:22.248Z,36.8604
2017-12-24T07:31:42.635Z,36.8604
2017-12-24T07:32:47.861Z,36.6093
2017-12-24T07:33:53.615Z,36.8604
2017-12-24T07:34:59.071Z,37.7772
2017-12-24T07:36:04.297Z,36.3583
2017-12-24T07:37:10.315Z,37.5289
2017-12-24T07:38:15.800Z,36.3583
2017-12-24T07:39:20.985Z,37.5289
2017-12-24T07:40:41.381Z,37.5289
2017-12-24T07:41:46.875Z,37.3598
2017-12-24T07:42:52.610Z,37.3598
2017-12-24T07:43:58.091Z,37.6108
2017-12-24T07:45:03.566Z,37.1087
2017-12-24T07:46:08.523Z,36.6093
2017-12-24T07:47:13.719Z,37.3598
2017-12-24T07:48:18.892Z,37.1087
2017-12-24T07:49:24.676Z,38.0283
2017-12-24T07:50:29.903Z,37.3598
2017-12-24T07:51:35.635Z,37.1087
2017-12-24T07:52:41.129Z,37.6108
2017-12-24T07:53:46.642Z,36.6093
2017-12-24T07:54:52.157Z,36.8604
2017-12-24T07:55:57.650Z,37.7772
2017-12-24T07:57:02.868Z,37.1087
2017-12-24T07:58:08.415Z,37.6108
2017-12-24T07:59:13.925Z,37.3598
2017-12-24T08:00:19.407Z,37.1087
2017-12-24T08:01:25.278Z,38.0283
2017-12-24T08:02:30.763Z,36.3583
2017-12-24T08:03:36.595Z,37.1087
2017-12-24T08:04:42.046Z,36.6093
2017-12-24T08:05:47.520Z,37.3598
2017-12-24T08:06:52.978Z,36.8604
2017-12-24T08:07:58.531Z,37.6108
2017-12-24T08:09:04.002Z,36.8604
2017-12-24T08:10:09.543Z,37.1087
2017-12-24T08:11:15.010Z,37.3598
2017-12-24T08:12:20.212Z,36.8604
2017-12-24T08:13:26.050Z,36.8604
2017-12-24T08:14:31.556Z,36.6093
2017-12-24T08:15:37.365Z,36.6093
2017-12-24T08:16:42.829Z,37.1087
2017-12-24T08:17:48.031Z,36.8604
2017-12-24T08:18:53.881Z,36.8604
2017-12-24T08:19:59.408Z,35.8563
2017-12-24T08:21:04.629Z,36.8604
2017-12-24T08:22:10.480Z,36.6093
2017-12-24T08:23:15.934Z,35.6053
2017-12-24T08:24:21.427Z,36.1073
2017-12-24T08:25:27.730Z,37.1087
2017-12-24T08:26:33.215Z,37.3598
2017-12-24T08:27:38.755Z,37.1087
2017-12-24T08:28:44.261Z,36.1073
2017-12-24T08:29:49.740Z,36.3583
2017-12-24T08:30:56.426Z,36.8604
2017-12-24T08:32:01.735Z,37.1087
2017-12-24T08:33:07.213Z,37.7772
2017-12-24T08:34:12.986Z,37.6108
2017-12-24T08:35:18.476Z,37.1087
2017-12-24T08:36:23.702Z,37.6108
2017-12-24T08:37:29.764Z,36.8604
2017-12-24T08:38:35.247Z,37.1087
2017-12-24T08:39:41.076Z,37.6108
2017-12-24T08:40:46.564Z,37.3598
2017-12-24T08:41:52.045Z,37.3598
2017-12-24T08:42:57.750Z,36.6093
2017-12-24T08:44:03.232Z,37.3598
2017-12-24T08:45:08.729Z,37.2778
2017-12-24T08:46:14.446Z,37.1087
2017-12-24T08:47:19.669Z,36.8604
2017-12-24T08:48:40.253Z,37.1087
2017-12-24T08:49:45.839Z,37.1087
2017-12-24T08:50:51.308Z,37.5289
2017-12-24T08:51:56.765Z,36.6093
2017-12-24T08:53:02.254Z,36.3583
2017-12-24T08:54:07.726Z,36.3583
2017-12-24T08:55:13.549Z,36.3583
2017-12-24T08:56:19.041Z,36.7758
2017-12-24T08:57:39.142Z,36.3583
2017-12-24T08:58:44.654Z,36.5248
2017-12-24T08:59:50.128Z,36.3583
2017-12-24T09:00:55.857Z,37.2778
2017-12-24T09:02:01.390Z,36.1073
2017-12-24T09:03:06.865Z,36.3583
2017-12-24T09:04:12.725Z,36.1073
2017-12-24T09:05:18.215Z,36.6093
2017-12-24T09:06:23.684Z,36.1073
2017-12-24T09:07:29.934Z,36.5248
2017-12-24T09:08:34.842Z,36.5248
2017-12-24T09:09:40.765Z,36.2738
2017-12-24T09:10:45.947Z,36.5248
2017-12-24T09:11:51.482Z,36.5248
2017-12-24T09:12:56.974Z,36.7758
2017-12-24T09:14:02.462Z,36.7758
2017-12-24T09:15:07.923Z,36.5248
2017-12-24T09:16:13.668Z,35.8563
2017-12-24T09:17:19.173Z,35.8563
2017-12-24T09:18:26.809Z,37.2778
2017-12-24T09:19:32.027Z,36.7758
2017-12-24T09:20:37.511Z,36.0254
2017-12-24T09:21:43.385Z,37.0268
2017-12-24T09:22:48.588Z,36.7758
2017-12-24T09:23:54.094Z,37.5289
2017-12-24T09:25:00.019Z,37.0268
2017-12-24T09:26:05.203Z,37.2778
2017-12-24T09:27:10.709Z,37.2778
2017-12-24T09:28:16.651Z,37.5289
2017-12-24T09:29:22.124Z,37.5289
2017-12-24T09:30:28.999Z,37.5289
2017-12-24T09:31:34.481Z,37.7772
2017-12-24T09:32:39.431Z,39.0323
2017-12-24T09:33:45.245Z,38.0283
2017-12-24T09:34:50.715Z,38.5303
2017-12-24T09:35:56.223Z,38.0283
2017-12-24T09:37:02.066Z,38.7813
2017-12-24T09:38:07.560Z,39.0323
2017-12-24T09:39:13.026Z,38.7813
2017-12-24T09:40:18.750Z,38.0283
2017-12-24T09:41:24.222Z,38.5303
2017-12-24T09:42:30.551Z,39.7008
2017-12-24T09:43:35.753Z,38.5303
2017-12-24T09:44:41.230Z,38.7813
2017-12-24T09:45:46.894Z,39.1988
2017-12-24T09:46:52.173Z,39.1988
2017-12-24T09:47:57.666Z,38.7813
2017-12-24T09:49:03.221Z,39.4498
2017-12-24T09:50:08.122Z,39.2834
2017-12-24T09:51:13.599Z,39.0323
2017-12-24T09:52:19.398Z,39.1988
2017-12-24T09:53:24.568Z,39.0323
2017-12-24T09:54:30.452Z,39.7008
2017-12-24T09:55:35.963Z,39.7008
2017-12-24T09:56:41.455Z,39.7008
2017-12-24T09:57:46.726Z,39.9519
2017-12-24T09:58:51.634Z,39.2834
2017-12-24T09:59:57.132Z,39.4498
2017-12-24T10:01:02.961Z,39.9519
2017-12-24T10:02:08.470Z,39.7008
2017-12-24T10:03:13.964Z,40.1183
2017-12-24T10:04:19.581Z,41.1198
2017-12-24T10:05:25.054Z,40.8688
2017-12-24T10:06:30.221Z,39.4498
2017-12-24T10:07:35.444Z,40.6204
2017-12-24T10:08:40.958Z,41.1198
2017-12-24T10:09:46.145Z,41.3708
2017-12-24T10:10:51.641Z,41.3708
2017-12-24T10:11:57.096Z,40.8688
2017-12-24T10:13:02.543Z,41.6218
2017-12-24T10:14:08.016Z,41.6218
2017-12-24T10:15:12.921Z,41.1198
2017-12-24T10:16:18.401Z,42.1239
2017-12-24T10:17:23.886Z,42.1239
2017-12-24T10:18:30.380Z,42.1239
2017-12-24T10:19:35.857Z,41.1198
2017-12-24T10:20:41.348Z,41.6218
2017-12-24T10:21:46.881Z,42.1239
2017-12-24T10:22:52.357Z,41.3708
2017-12-24T10:23:57.803Z,40.8688
2017-12-24T10:25:02.971Z,42.2903
2017-12-24T10:26:07.917Z,41.8728
2017-12-24T10:27:13.097Z,42.5413
2017-12-24T10:28:18.743Z,41.6218
2017-12-24T10:29:24.199Z,42.1239
2017-12-24T10:30:30.231Z,42.1239
2017-12-24T10:31:35.704Z,42.3749
2017-12-24T10:32:41.174Z,42.1239
2017-12-24T10:33:46.883Z,42.5413
2017-12-24T10:34:52.379Z,42.3749
2017-12-24T10:35:57.871Z,41.3708
2017-12-24T10:37:03.383Z,41.3708
2017-12-24T10:38:08.286Z,41.3708
2017-12-24T10:39:13.749Z,42.1239
2017-12-24T10:40:19.554Z,41.1198
2017-12-24T10:41:24.719Z,43.5454
2017-12-24T10:42:30.953Z,41.8728
2017-12-24T10:43:36.152Z,42.7924
2017-12-24T10:44:41.321Z,42.5413
2017-12-24T10:45:46.207Z,42.5413
2017-12-24T10:46:51.695Z,42.3749
2017-12-24T10:47:57.196Z,42.5413
2017-12-24T10:49:02.921Z,42.1239
2017-12-24T10:50:08.816Z,43.0434
2017-12-24T10:51:14.023Z,41.8728
2017-12-24T10:52:19.764Z,42.3749
2017-12-24T10:53:24.992Z,41.8728
2017-12-24T10:54:30.900Z,41.8728
2017-12-24T10:55:36.383Z,42.7924
2017-12-24T10:56:41.868Z,42.1239
2017-12-24T10:57:47.950Z,43.2944
2017-12-24T10:58:53.436Z,42.5413
2017-12-24T10:59:58.929Z,41.8728
2017-12-24T11:01:04.783Z,42.3749
2017-12-24T11:02:10.260Z,43.5454
2017-12-24T11:03:15.455Z,42.5413
2017-12-24T11:04:20.933Z,42.7924
2017-12-24T11:05:26.150Z,42.3749
2017-12-24T11:06:31.732Z,42.3749
2017-12-24T11:07:37.230Z,43.2944
2017-12-24T11:08:42.723Z,43.2944
2017-12-24T11:09:48.534Z,43.0434
2017-12-24T11:10:53.988Z,42.3749
2017-12-24T11:11:59.183Z,42.7924
2017-12-24T11:13:04.812Z,43.2944
2017-12-24T11:14:10.290Z,43.2944
2017-12-24T11:15:15.763Z,42.7924
2017-12-24T11:16:21.496Z,42.3749
2017-12-24T11:17:26.998Z,43.5454
2017-12-24T11:18:33.038Z,43.5454
2017-12-24T11:19:38.512Z,43.2944
2017-12-24T11:20:43.699Z,44.2139
2017-12-24T11:21:49.328Z,43.0434
2017-12-24T11:22:54.818Z,44.0448
2017-12-24T11:24:00.267Z,44.2139
2017-12-24T11:25:06.119Z,43.7964
2017-12-24T11:26:11.606Z,44.967
2017-12-24T11:27:17.109Z,44.716
2017-12-24T11:28:22.854Z,44.2139
2017-12-24T11:29:28.346Z,45.3845
2017-12-24T11:30:34.327Z,45.3845
2017-12-24T11:31:39.522Z,45.1335
2017-12-24T11:32:44.720Z,45.1335
2017-12-24T11:33:50.540Z,45.1335
2017-12-24T11:34:56.048Z,44.716
2017-12-24T11:36:01.529Z,44.2139
2017-12-24T11:37:06.976Z,45.1335
2017-12-24T11:38:11.880Z,45.1335
2017-12-24T11:39:17.382Z,45.1335
2017-12-24T11:40:23.115Z,46.1375
2017-12-24T11:41:28.662Z,46.3886
2017-12-24T11:42:34.585Z,45.8865
2017-12-24T11:43:40.059Z,45.8865
2017-12-24T11:44:45.536Z,46.6369
2017-12-24T11:45:51.353Z,46.3886
2017-12-24T11:46:56.846Z,45.8865
2017-12-24T11:48:02.295Z,46.6369
2017-12-24T11:49:08.129Z,46.888
2017-12-24T11:50:13.585Z,47.139
2017-12-24T11:51:19.077Z,47.39
2017-12-24T11:52:24.789Z,47.39
2017-12-24T11:53:30.299Z,47.39
2017-12-24T11:54:36.176Z,47.39
2017-12-24T11:55:41.356Z,47.641
2017-12-24T11:56:46.564Z,48.3095
2017-12-24T11:57:52.287Z,48.0585
2017-12-24T11:58:57.482Z,47.5591
2017-12-24T12:00:02.382Z,47.8075
2017-12-24T12:01:08.220Z,48.3095
2017-12-24T12:02:13.705Z,48.8116
2017-12-24T12:03:18.650Z,48.5605
2017-12-24T12:04:24.904Z,48.3095
2017-12-24T12:05:30.371Z,48.0585
2017-12-24T12:06:36.125Z,47.641
2017-12-24T12:07:41.593Z,48.3095
2017-12-24T12:08:47.087Z,48.3095
2017-12-24T12:09:52.876Z,48.3095
2017-12-24T12:10:58.336Z,48.0585
2017-12-24T12:12:03.812Z,48.5605
2017-12-24T12:13:09.246Z,47.8075
2017-12-24T12:14:14.403Z,47.641
2017-12-24T12:15:19.333Z,48.0585
2017-12-24T12:16:25.174Z,48.0585
2017-12-24T12:17:30.663Z,48.0585
2017-12-24T12:18:36.264Z,48.3095
2017-12-24T12:19:41.754Z,48.0585
2017-12-24T12:20:47.262Z,48.0585
2017-12-24T12:21:52.526Z,48.0585
2017-12-24T12:22:57.697Z,48.8116
2017-12-24T12:24:02.317Z,49.3136
2017-12-24T12:25:08.213Z,48.3095
2017-12-24T12:26:13.404Z,48.5605
2017-12-24T12:27:18.906Z,49.0626
2017-12-24T12:28:24.718Z,50.0667
2017-12-24T12:29:30.210Z,49.3136
2017-12-24T12:30:36.096Z,50.2331
2017-12-24T12:31:41.572Z,50.7352
2017-12-24T12:32:46.768Z,50.7352
2017-12-24T12:33:53.023Z,50.9862
2017-12-24T12:34:58.197Z,52.2413
2017-12-24T12:36:03.721Z,51.7393
2017-12-24T12:37:09.436Z,52.2413
2017-12-24T12:38:14.923Z,52.4923
2017-12-24T12:39:20.426Z,52.4923
2017-12-24T12:40:26.348Z,52.4923
2017-12-24T12:41:31.810Z,52.9124
2017-12-24T12:42:37.557Z,52.9124
2017-12-24T12:43:42.739Z,52.9124
2017-12-24T12:44:47.678Z,52.9124
2017-12-24T12:45:53.415Z,52.7433
2017-12-24T12:46:58.942Z,53.4118
2017-12-24T12:48:04.400Z,52.2413
2017-12-24T12:49:10.467Z,53.4118
2017-12-24T12:50:15.936Z,52.7433
2017-12-24T12:51:21.399Z,51.7393
2017-12-24T12:52:41.776Z,52.9124
2017-12-24T12:53:47.242Z,52.9124
2017-12-24T12:54:52.986Z,53.1608
2017-12-24T12:55:58.210Z,52.4923
2017-12-24T12:57:03.127Z,52.4923
2017-12-24T12:58:08.583Z,52.9124
2017-12-24T12:59:14.073Z,52.9124
2017-12-24T13:00:19.005Z,53.1608
2017-12-24T13:01:24.831Z,54.1649
2017-12-24T13:02:30.312Z,53.4118
2017-12-24T13:03:36.180Z,52.9124
2017-12-24T13:04:41.698Z,54.1649
2017-12-24T13:05:46.875Z,53.6629
2017-12-24T13:06:52.645Z,54.4159
2017-12-24T13:07:58.143Z,54.918
2017-12-24T13:09:03.643Z,55.169
2017-12-24T13:10:09.104Z,54.6696
2017-12-24T13:11:14.741Z,55.169
2017-12-24T13:12:20.226Z,54.6696
2017-12-24T13:13:26.024Z,54.1649
2017-12-24T13:14:31.513Z,54.918
2017-12-24T13:15:37.239Z,55.169
2017-12-24T13:16:42.742Z,54.6696
2017-12-24T13:17:48.198Z,55.169
2017-12-24T13:18:54.153Z,55.3381
2017-12-24T13:19:59.658Z,54.918
2017-12-24T13:21:05.147Z,54.6696
2017-12-24T13:22:10.893Z,54.6696
2017-12-24T13:23:16.374Z,55.3381